createdAt,value
2018-07-13T00:01:10.867Z,18.20
2018-07-13T00:03:44.612Z,18.10
2018-07-13T00:06:18.460Z,18.10
2018-07-13T00:08:52.072Z,18.00
2018-07-13T00:11:25.901Z,17.90
2018-07-13T00:13:59.615Z,17.80
2018-07-13T00:16:33.431Z,17.80
2018-07-13T00:19:07.208Z,17.80
2018-07-13T00:21:40.977Z,17.80
2018-07-13T00:24:15.632Z,17.90
2018-07-13T00:26:49.345Z,17.90
2018-07-13T00:29:23.871Z,18.00
2018-07-13T00:31:57.543Z,17.90
2018-07-13T00:34:31.400Z,17.90
2018-07-13T00:37:06.074Z,17.70
2018-07-13T00:39:39.794Z,17.70
2018-07-13T00:42:13.639Z,17.70
2018-07-13T00:44:47.295Z,17.70
2018-07-13T00:47:21.154Z,17.60
2018-07-13T00:49:54.898Z,17.50
2018-07-13T00:52:28.768Z,17.40
2018-07-13T00:55:03.437Z,17.40
2018-07-13T00:57:38.717Z,17.40
2018-07-13T01:00:13.312Z,17.40
2018-07-13T01:02:47.046Z,17.40
2018-07-13T01:05:20.686Z,17.40
2018-07-13T01:07:54.524Z,17.40
2018-07-13T01:10:28.153Z,17.30
2018-07-13T01:13:02.008Z,17.30
2018-07-13T01:15:35.860Z,17.20
2018-07-13T01:18:09.717Z,17.20
2018-07-13T01:20:44.279Z,17.30
2018-07-13T01:23:18.160Z,17.30
2018-07-13T01:25:52.076Z,17.40
2018-07-13T01:28:25.812Z,17.40
2018-07-13T01:30:59.384Z,17.30
2018-07-13T01:33:33.260Z,17.30
2018-07-13T01:36:07.116Z,17.30
2018-07-13T01:38:41.723Z,17.10
2018-07-13T01:41:15.357Z,17.10
2018-07-13T01:43:49.173Z,17.10
2018-07-13T01:46:23.072Z,17.10
2018-07-13T01:48:57.706Z,16.90
2018-07-13T01:51:31.417Z,16.90
2018-07-13T01:54:05.235Z,16.90
2018-07-13T01:56:39.105Z,16.90
2018-07-13T01:59:12.959Z,16.90
2018-07-13T02:01:46.829Z,16.70
2018-07-13T02:04:20.527Z,16.60
2018-07-13T02:06:54.370Z,16.60
2018-07-13T02:09:28.195Z,16.60
2018-07-13T02:12:02.723Z,16.60
2018-07-13T02:14:36.448Z,16.60
2018-07-13T02:17:11.055Z,16.50
2018-07-13T02:19:45.606Z,16.60
2018-07-13T02:22:19.415Z,16.50
2018-07-13T02:24:53.108Z,16.60
2018-07-13T02:27:26.952Z,16.60
2018-07-13T02:30:00.795Z,16.50
2018-07-13T02:32:34.627Z,16.50
2018-07-13T02:35:08.324Z,16.50
2018-07-13T02:37:41.983Z,16.40
2018-07-13T02:40:15.753Z,16.30
2018-07-13T02:42:50.400Z,16.30
2018-07-13T02:45:24.092Z,16.30
2018-07-13T02:47:57.945Z,16.40
2018-07-13T02:50:31.674Z,16.30
2018-07-13T02:53:06.364Z,16.30
2018-07-13T02:55:40.010Z,16.20
2018-07-13T02:58:14.682Z,16.20
2018-07-13T03:00:48.244Z,16.20
2018-07-13T03:03:21.940Z,16.20
2018-07-13T03:05:55.786Z,16.20
2018-07-13T03:08:30.368Z,16.30
2018-07-13T03:11:04.904Z,16.20
2018-07-13T03:13:38.618Z,16.20
2018-07-13T03:16:12.524Z,16.20
2018-07-13T03:18:46.381Z,16.10
2018-07-13T03:21:20.248Z,16.10
2018-07-13T03:23:54.091Z,16.10
2018-07-13T03:26:27.929Z,16.10
2018-07-13T03:29:01.783Z,16.20
2018-07-13T03:31:36.491Z,16.20
2018-07-13T03:34:10.339Z,16.20
2018-07-13T03:36:44.130Z,16.10
2018-07-13T03:39:17.982Z,16.20
2018-07-13T03:41:52.533Z,16.20
2018-07-13T03:44:26.324Z,16.20
2018-07-13T03:47:00.000Z,16.20
2018-07-13T03:49:33.838Z,16.10
2018-07-13T03:52:08.452Z,16.10
2018-07-13T03:54:42.869Z,16.10
2018-07-13T03:57:16.797Z,16.00
2018-07-13T03:59:50.611Z,16.00
2018-07-13T04:02:25.216Z,16.00
2018-07-13T04:04:58.993Z,16.00
2018-07-13T04:07:32.882Z,16.00
2018-07-13T04:10:07.504Z,16.00
2018-07-13T04:12:41.211Z,16.00
2018-07-13T04:15:15.887Z,16.10
2018-07-13T04:17:49.660Z,16.10
2018-07-13T04:20:23.482Z,16.10
2018-07-13T04:22:57.097Z,16.10
2018-07-13T04:25:31.708Z,16.30
2018-07-13T04:28:05.380Z,16.30
2018-07-13T04:30:39.954Z,16.40
2018-07-13T04:33:14.494Z,16.40
2018-07-13T04:35:48.303Z,16.40
2018-07-13T04:38:22.927Z,16.40
2018-07-13T04:40:57.599Z,16.50
2018-07-13T04:43:32.070Z,16.40
2018-07-13T04:46:06.710Z,16.30
2018-07-13T04:48:40.378Z,16.30
2018-07-13T04:51:15.048Z,16.30
2018-07-13T04:53:49.622Z,16.50
2018-07-13T04:56:24.347Z,16.70
2018-07-13T04:58:58.005Z,16.70
2018-07-13T05:01:32.600Z,17.10
2018-07-13T05:04:07.236Z,17.30
2018-07-13T05:06:40.991Z,17.30
2018-07-13T05:09:14.997Z,17.40
2018-07-13T05:11:48.903Z,18.10
2018-07-13T05:14:22.563Z,18.80
2018-07-13T05:16:56.413Z,19.90
2018-07-13T05:19:31.097Z,20.30
2018-07-13T05:22:05.572Z,20.10
2018-07-13T05:24:39.318Z,20.10
2018-07-13T05:27:13.000Z,19.70
2018-07-13T05:29:46.778Z,19.20
2018-07-13T05:32:20.661Z,18.80
2018-07-13T05:34:54.579Z,18.60
2018-07-13T05:37:28.337Z,18.40
2018-07-13T05:40:02.141Z,18.30
2018-07-13T05:42:36.664Z,18.20
2018-07-13T05:45:11.287Z,18.10
2018-07-13T05:47:45.073Z,18.10
2018-07-13T05:50:18.785Z,18.10
2018-07-13T05:52:52.541Z,18.00
2018-07-13T05:55:27.621Z,18.10
2018-07-13T05:58:01.312Z,18.10
2018-07-13T06:00:35.119Z,18.10
2018-07-13T06:03:09.153Z,18.00
2018-07-13T06:05:42.964Z,18.00
2018-07-13T06:08:17.478Z,18.10
2018-07-13T06:10:52.152Z,18.30
2018-07-13T06:13:25.838Z,18.20
2018-07-13T06:16:00.467Z,18.50
2018-07-13T06:18:34.212Z,18.50
2018-07-13T06:21:08.841Z,18.70
2018-07-13T06:23:42.714Z,18.70
2018-07-13T06:26:16.377Z,18.60
2018-07-13T06:28:51.364Z,18.90
2018-07-13T06:31:25.078Z,18.80
2018-07-13T06:33:58.920Z,18.80
2018-07-13T06:36:32.668Z,19.00
2018-07-13T06:39:06.580Z,19.20
2018-07-13T06:41:40.244Z,19.40
2018-07-13T06:44:14.120Z,19.40
2018-07-13T06:46:47.959Z,19.50
2018-07-13T06:49:22.541Z,19.60
2018-07-13T06:51:56.175Z,19.80
2018-07-13T06:54:30.103Z,19.60
2018-07-13T06:57:03.868Z,19.40
2018-07-13T06:59:38.412Z,19.50
2018-07-13T07:02:12.193Z,19.50
2018-07-13T07:04:45.988Z,19.70
2018-07-13T07:07:20.457Z,20.00
2018-07-13T07:09:54.268Z,20.00
2018-07-13T07:12:29.518Z,20.20
2018-07-13T07:15:03.217Z,20.10
2018-07-13T07:17:37.742Z,20.50
2018-07-13T07:20:11.589Z,20.40
2018-07-13T07:22:46.181Z,20.70
2018-07-13T07:25:19.958Z,20.60
2018-07-13T07:27:53.881Z,20.50
2018-07-13T07:30:28.284Z,20.60
2018-07-13T07:33:02.952Z,20.70
2018-07-13T07:35:37.672Z,20.80
2018-07-13T07:38:11.372Z,20.80
2018-07-13T07:40:46.020Z,21.00
2018-07-13T07:43:20.622Z,21.20
2018-07-13T07:45:55.217Z,21.30
2018-07-13T07:48:29.877Z,21.50
2018-07-13T07:51:04.598Z,21.70
2018-07-13T07:53:38.425Z,21.70
2018-07-13T07:56:12.219Z,21.60
2018-07-13T07:58:45.973Z,21.60
2018-07-13T08:01:19.659Z,21.70
2018-07-13T08:03:53.480Z,21.70
2018-07-13T08:06:27.484Z,21.90
2018-07-13T08:09:01.138Z,22.00
2018-07-13T08:11:34.924Z,22.40
2018-07-13T08:14:08.843Z,22.40
2018-07-13T08:16:42.356Z,22.60
2018-07-13T08:19:16.245Z,23.20
2018-07-13T08:21:50.692Z,25.50
2018-07-13T08:24:24.369Z,25.50
2018-07-13T08:26:59.010Z,27.50
2018-07-13T08:29:32.701Z,27.50
2018-07-13T08:32:06.522Z,28.30
2018-07-13T08:34:40.316Z,28.50
2018-07-13T08:37:14.057Z,28.10
2018-07-13T08:39:48.528Z,29.80
2018-07-13T08:42:22.933Z,30.20
2018-07-13T08:44:56.808Z,30.10
2018-07-13T08:47:30.624Z,30.20
2018-07-13T08:50:05.175Z,30.50
2018-07-13T08:52:38.932Z,30.50
2018-07-13T08:55:12.815Z,30.70
2018-07-13T08:57:46.974Z,30.80
2018-07-13T09:00:21.515Z,29.80
2018-07-13T09:02:55.167Z,29.70
2018-07-13T09:05:30.687Z,30.10
2018-07-13T09:08:04.477Z,30.80
2018-07-13T09:10:39.805Z,30.30
2018-07-13T09:13:13.696Z,30.60
2018-07-13T09:15:47.330Z,30.50
2018-07-13T09:18:21.856Z,30.10
2018-07-13T09:20:55.716Z,30.00
2018-07-13T09:23:29.524Z,29.90
2018-07-13T09:26:04.003Z,31.50
2018-07-13T09:28:37.707Z,31.50
2018-07-13T09:31:12.407Z,32.20
2018-07-13T09:33:46.995Z,32.80
2018-07-13T09:36:21.496Z,33.20
2018-07-13T09:38:55.149Z,33.10
2018-07-13T09:41:28.808Z,32.90
2018-07-13T09:44:02.553Z,31.50
2018-07-13T09:46:36.470Z,31.10
2018-07-13T09:49:10.344Z,32.10
2018-07-13T09:51:44.929Z,32.60
2018-07-13T09:54:18.705Z,32.60
2018-07-13T09:56:52.381Z,32.80
2018-07-13T09:59:26.058Z,32.60
2018-07-13T10:01:59.871Z,32.60
2018-07-13T10:04:33.577Z,32.40
2018-07-13T10:07:08.187Z,31.90
2018-07-13T10:09:41.779Z,31.90
2018-07-13T10:12:15.714Z,32.80
2018-07-13T10:14:49.441Z,32.80
2018-07-13T10:17:23.274Z,33.10
2018-07-13T10:19:57.049Z,33.40
2018-07-13T10:22:30.918Z,33.20
2018-07-13T10:25:04.744Z,32.60
2018-07-13T10:27:38.628Z,31.90
2018-07-13T10:30:13.061Z,31.00
2018-07-13T10:32:46.884Z,31.00
2018-07-13T10:35:21.581Z,31.10
2018-07-13T10:37:55.340Z,31.10
2018-07-13T10:40:28.994Z,31.30
2018-07-13T10:43:02.744Z,31.20
2018-07-13T10:45:38.035Z,31.20
2018-07-13T10:48:11.776Z,31.10
2018-07-13T10:50:45.491Z,31.50
2018-07-13T10:53:20.036Z,31.70
2018-07-13T10:55:53.784Z,31.70
2018-07-13T10:58:28.214Z,30.70
2018-07-13T11:01:01.787Z,30.80
2018-07-13T11:03:35.557Z,31.50
2018-07-13T11:06:09.308Z,31.10
2018-07-13T11:08:43.062Z,31.00
2018-07-13T11:11:16.870Z,31.60
2018-07-13T11:13:50.598Z,32.20
2018-07-13T11:16:24.325Z,32.60
2018-07-13T11:18:58.062Z,31.90
2018-07-13T11:21:31.856Z,30.90
2018-07-13T11:24:06.285Z,29.50
2018-07-13T11:26:40.769Z,29.80
2018-07-13T11:29:15.532Z,29.80
2018-07-13T11:31:49.181Z,30.90
2018-07-13T11:34:22.912Z,31.40
2018-07-13T11:36:56.685Z,32.00
2018-07-13T11:39:30.372Z,32.10
2018-07-13T11:42:04.244Z,31.40
2018-07-13T11:44:38.161Z,30.30
2018-07-13T11:47:11.936Z,30.20
2018-07-13T11:49:45.592Z,29.90
2018-07-13T11:52:19.344Z,29.90
2018-07-13T11:54:53.756Z,29.40
2018-07-13T11:57:27.561Z,29.40
2018-07-13T12:00:01.297Z,29.20
2018-07-13T12:02:35.041Z,28.80
2018-07-13T12:05:09.497Z,28.60
2018-07-13T12:07:43.303Z,28.60
2018-07-13T12:10:16.919Z,28.80
2018-07-13T12:12:51.554Z,29.20
2018-07-13T12:15:26.053Z,29.20
2018-07-13T12:18:00.712Z,29.20
2018-07-13T12:20:34.551Z,29.20
2018-07-13T12:23:08.517Z,29.00
2018-07-13T12:25:42.359Z,28.80
2018-07-13T12:28:16.181Z,28.40
2018-07-13T12:30:49.828Z,28.50
2018-07-13T12:33:23.629Z,28.50
2018-07-13T12:35:57.358Z,28.70
2018-07-13T12:38:31.161Z,28.60
2018-07-13T12:41:04.860Z,28.60
2018-07-13T12:43:38.736Z,28.50
2018-07-13T12:46:13.294Z,28.40
2018-07-13T12:48:47.146Z,28.40
2018-07-13T12:51:21.016Z,28.40
2018-07-13T12:53:54.700Z,28.70
2018-07-13T12:56:28.617Z,28.80
2018-07-13T12:59:03.232Z,28.70
2018-07-13T13:01:37.002Z,28.70
2018-07-13T13:04:10.743Z,28.60
2018-07-13T13:06:44.451Z,28.30
2018-07-13T13:09:18.309Z,28.40
2018-07-13T13:11:52.150Z,28.50
2018-07-13T13:14:25.936Z,28.40
2018-07-13T13:16:59.816Z,28.30
2018-07-13T13:19:33.684Z,28.40
2018-07-13T13:22:07.485Z,28.50
2018-07-13T13:24:42.116Z,28.80
2018-07-13T13:27:15.950Z,28.80
2018-07-13T13:29:49.655Z,28.70
2018-07-13T13:32:24.246Z,28.80
2018-07-13T13:34:59.507Z,28.90
2018-07-13T13:37:34.067Z,29.00
2018-07-13T13:40:08.655Z,28.90
2018-07-13T13:42:42.469Z,28.90
2018-07-13T13:45:16.272Z,28.80
2018-07-13T13:47:50.832Z,29.00
2018-07-13T13:50:24.538Z,29.00
2018-07-13T13:52:58.328Z,29.00
2018-07-13T13:55:32.123Z,28.80
2018-07-13T13:58:05.843Z,28.70
2018-07-13T14:00:39.487Z,28.70
2018-07-13T14:03:14.064Z,28.60
2018-07-13T14:05:47.738Z,28.50
2018-07-13T14:08:23.147Z,28.70
2018-07-13T14:10:56.784Z,28.80
2018-07-13T14:13:31.165Z,29.10
2018-07-13T14:16:04.921Z,29.00
2018-07-13T14:18:38.689Z,29.00
2018-07-13T14:21:13.344Z,28.80
2018-07-13T14:23:47.947Z,28.80
2018-07-13T14:26:21.770Z,28.80
2018-07-13T14:28:56.341Z,28.50
2018-07-13T14:31:30.083Z,28.50
2018-07-13T14:34:03.809Z,28.40
2018-07-13T14:36:37.497Z,28.30
2018-07-13T14:39:11.890Z,28.20
2018-07-13T14:41:46.419Z,28.50
2018-07-13T14:44:20.356Z,28.50
2018-07-13T14:46:54.154Z,28.70
2018-07-13T14:49:29.508Z,28.70
2018-07-13T14:52:04.077Z,28.70
2018-07-13T14:54:39.471Z,28.90
2018-07-13T14:57:13.353Z,28.90
2018-07-13T14:59:47.342Z,29.00
2018-07-13T15:02:21.833Z,28.90
2018-07-13T15:04:56.232Z,28.90
2018-07-13T15:07:30.313Z,28.90
2018-07-13T15:10:05.119Z,29.10
2018-07-13T15:12:39.293Z,29.10
2018-07-13T15:15:13.640Z,29.10
2018-07-13T15:17:48.047Z,29.20
2018-07-13T15:20:25.371Z,29.00
2018-07-13T15:22:59.161Z,28.90
2018-07-13T15:25:32.982Z,28.80
2018-07-13T15:28:06.750Z,28.80
2018-07-13T15:30:41.209Z,29.00
2018-07-13T15:33:14.845Z,29.00
2018-07-13T15:35:48.552Z,29.10
2018-07-13T15:38:22.285Z,29.10
2018-07-13T15:40:55.963Z,29.20
2018-07-13T15:43:29.681Z,29.10
2018-07-13T15:46:04.285Z,28.80
2018-07-13T15:48:38.112Z,28.80
2018-07-13T15:51:12.781Z,29.00
2018-07-13T15:53:46.597Z,29.00
2018-07-13T15:56:20.345Z,29.00
2018-07-13T15:58:54.221Z,29.00
2018-07-13T16:01:29.027Z,29.00
2018-07-13T16:04:03.353Z,28.80
2018-07-13T16:06:37.167Z,28.70
2018-07-13T16:09:11.979Z,28.80
2018-07-13T16:11:45.796Z,28.70
2018-07-13T16:14:19.976Z,29.00
2018-07-13T16:16:53.789Z,29.00
2018-07-13T16:19:27.674Z,29.10
2018-07-13T16:22:02.102Z,28.90
2018-07-13T16:24:36.832Z,28.80
2018-07-13T16:27:10.869Z,28.80
2018-07-13T16:29:46.186Z,28.80
2018-07-13T16:32:19.905Z,28.80
2018-07-13T16:34:53.817Z,28.80
2018-07-13T16:37:28.213Z,28.60
2018-07-13T16:40:02.230Z,28.60
2018-07-13T16:42:36.160Z,28.80
2018-07-13T16:45:10.856Z,28.80
2018-07-13T16:47:48.788Z,28.80
2018-07-13T16:50:23.245Z,28.70
2018-07-13T16:52:57.037Z,28.60
2018-07-13T16:55:31.476Z,28.60
2018-07-13T16:58:05.280Z,28.60
2018-07-13T17:00:39.809Z,28.70
2018-07-13T17:03:13.712Z,28.70
2018-07-13T17:05:47.508Z,28.70
2018-07-13T17:08:21.375Z,28.60
2018-07-13T17:10:55.947Z,28.40
2018-07-13T17:13:29.832Z,28.40
2018-07-13T17:16:04.397Z,28.50
2018-07-13T17:18:38.257Z,28.40
2018-07-13T17:21:12.941Z,28.40
2018-07-13T17:23:46.840Z,28.40
2018-07-13T17:26:21.567Z,28.40
2018-07-13T17:28:56.173Z,28.30
2018-07-13T17:31:30.692Z,28.20
2018-07-13T17:34:05.129Z,28.20
2018-07-13T17:36:38.893Z,28.20
2018-07-13T17:39:12.665Z,28.20
2018-07-13T17:41:47.052Z,28.10
2018-07-13T17:44:20.791Z,28.10
2018-07-13T17:46:54.433Z,28.00
2018-07-13T17:49:28.989Z,28.00
2018-07-13T17:52:02.910Z,28.00
2018-07-13T17:54:37.342Z,27.90
2018-07-13T17:57:11.181Z,27.90
2018-07-13T17:59:44.841Z,27.90
2018-07-13T18:02:18.620Z,27.80
2018-07-13T18:04:52.424Z,27.90
2018-07-13T18:07:26.284Z,27.80
2018-07-13T18:10:00.016Z,27.80
2018-07-13T18:12:33.779Z,27.80
2018-07-13T18:15:08.312Z,27.70
2018-07-13T18:17:42.087Z,27.70
2018-07-13T18:20:15.911Z,27.70
2018-07-13T18:22:49.617Z,27.70
2018-07-13T18:25:23.565Z,27.70
2018-07-13T18:27:57.469Z,27.60
2018-07-13T18:30:32.053Z,27.60
2018-07-13T18:33:05.776Z,27.60
2018-07-13T18:35:40.405Z,27.50
2018-07-13T18:38:15.696Z,27.40
2018-07-13T18:40:50.359Z,27.40
2018-07-13T18:43:25.023Z,27.30
2018-07-13T18:45:59.490Z,27.20
2018-07-13T18:48:34.101Z,27.30
2018-07-13T18:51:08.786Z,27.20
2018-07-13T18:53:42.544Z,27.10
2018-07-13T18:56:16.447Z,27.10
2018-07-13T18:58:50.299Z,27.10
2018-07-13T19:01:24.094Z,27.00
2018-07-13T19:03:58.700Z,26.80
2018-07-13T19:06:32.505Z,26.90
2018-07-13T19:09:07.106Z,26.80
2018-07-13T19:11:40.929Z,26.80
2018-07-13T19:14:14.803Z,26.80
2018-07-13T19:16:48.566Z,26.70
2018-07-13T19:19:23.157Z,26.60
2018-07-13T19:21:56.853Z,26.50
2018-07-13T19:24:32.220Z,26.40
2018-07-13T19:27:06.127Z,26.40
2018-07-13T19:29:39.811Z,26.30
2018-07-13T19:32:13.642Z,26.20
2018-07-13T19:34:47.441Z,26.20
2018-07-13T19:37:21.975Z,26.10
2018-07-13T19:39:56.549Z,26.00
2018-07-13T19:42:31.850Z,25.90
2018-07-13T19:45:05.762Z,25.90
2018-07-13T19:47:39.550Z,25.80
2018-07-13T19:50:14.136Z,25.80
2018-07-13T19:52:48.577Z,25.70
2018-07-13T19:55:22.404Z,25.70
2018-07-13T19:57:57.012Z,25.30
2018-07-13T20:00:30.856Z,25.20
2018-07-13T20:03:05.416Z,24.80
2018-07-13T20:05:39.132Z,24.80
2018-07-13T20:08:12.942Z,24.80
2018-07-13T20:10:46.795Z,24.70
2018-07-13T20:13:21.358Z,24.60
2018-07-13T20:15:55.232Z,24.60
2018-07-13T20:18:29.151Z,24.60
2018-07-13T20:21:02.969Z,24.60
2018-07-13T20:23:36.847Z,24.50
2018-07-13T20:26:10.537Z,24.30
2018-07-13T20:28:45.126Z,24.30
2018-07-13T20:31:19.007Z,24.30
2018-07-13T20:33:52.776Z,24.40
2018-07-13T20:36:27.328Z,24.30
2018-07-13T20:39:01.187Z,24.30
2018-07-13T20:41:35.055Z,24.40
2018-07-13T20:44:08.897Z,24.40
2018-07-13T20:46:43.552Z,24.10
2018-07-13T20:49:17.273Z,24.10
2018-07-13T20:51:51.068Z,24.00
2018-07-13T20:54:24.868Z,23.90
2018-07-13T20:56:59.352Z,23.80
2018-07-13T20:59:33.213Z,23.80
2018-07-13T21:02:07.772Z,23.80
2018-07-13T21:04:41.528Z,23.70
2018-07-13T21:07:15.158Z,23.70
2018-07-13T21:09:48.860Z,23.70
2018-07-13T21:12:22.774Z,23.70
2018-07-13T21:14:56.560Z,23.60
2018-07-13T21:17:31.266Z,23.50
2018-07-13T21:20:05.872Z,23.40
2018-07-13T21:22:40.276Z,23.40
2018-07-13T21:25:13.926Z,23.40
2018-07-13T21:27:48.518Z,23.30
2018-07-13T21:30:22.368Z,23.30
2018-07-13T21:32:56.925Z,23.20
2018-07-13T21:35:30.647Z,23.20
2018-07-13T21:38:04.400Z,23.20
2018-07-13T21:40:39.056Z,23.10
2018-07-13T21:43:14.339Z,23.00
2018-07-13T21:45:48.136Z,23.00
2018-07-13T21:48:21.960Z,23.00
2018-07-13T21:50:55.850Z,23.00
2018-07-13T21:53:29.670Z,22.90
2018-07-13T21:56:03.497Z,22.90
2018-07-13T21:58:37.124Z,22.90
2018-07-13T22:01:10.831Z,23.00
2018-07-13T22:03:44.577Z,23.00
2018-07-13T22:06:19.208Z,22.90
2018-07-13T22:08:53.688Z,22.90
2018-07-13T22:11:27.460Z,22.90
2018-07-13T22:14:01.354Z,22.80
2018-07-13T22:16:36.064Z,22.70
2018-07-13T22:19:09.904Z,22.70
2018-07-13T22:21:44.379Z,22.50
2018-07-13T22:24:18.146Z,22.50
2018-07-13T22:26:51.872Z,22.30
2018-07-13T22:29:25.611Z,22.30
2018-07-13T22:32:00.233Z,22.30
2018-07-13T22:34:34.091Z,22.20
2018-07-13T22:37:07.898Z,22.30
2018-07-13T22:39:42.436Z,22.20
2018-07-13T22:42:16.251Z,22.20
2018-07-13T22:44:50.090Z,22.20
2018-07-13T22:47:23.705Z,22.20
2018-07-13T22:49:58.285Z,22.10
2018-07-13T22:52:32.033Z,22.00
2018-07-13T22:55:06.570Z,22.00
2018-07-13T22:57:41.046Z,22.00
2018-07-13T23:00:14.788Z,22.00
2018-07-13T23:02:48.523Z,21.90
2018-07-13T23:05:22.441Z,21.90
2018-07-13T23:07:56.857Z,21.80
2018-07-13T23:10:30.503Z,21.80
2018-07-13T23:13:05.109Z,21.70
2018-07-13T23:15:39.740Z,21.70
2018-07-13T23:18:14.352Z,21.60
2018-07-13T23:20:47.973Z,21.60
2018-07-13T23:23:21.832Z,21.60
2018-07-13T23:25:56.473Z,21.50
2018-07-13T23:28:30.349Z,21.50
2018-07-13T23:31:04.100Z,21.50
2018-07-13T23:33:37.857Z,21.40
2018-07-13T23:36:11.680Z,21.40
2018-07-13T23:38:45.400Z,21.30
2018-07-13T23:41:19.178Z,21.30
2018-07-13T23:43:53.865Z,21.20
2018-07-13T23:46:27.568Z,21.20
2018-07-13T23:49:02.087Z,21.20
2018-07-13T23:51:35.908Z,21.20
2018-07-13T23:54:09.613Z,21.10
2018-07-13T23:56:43.458Z,21.00
2018-07-13T23:59:17.222Z,21.00
